FQMA

Maputo Airport

Maputo, Mozambique
TAF FQMA 181600Z 1818/1924 08012KT 9999 SCT020 BECMG 1900/1902 02008KT BECMG 1912/1914 09012KT FEW025CB TX39/1913Z TN25/1903Z
Issued Valid From Valid To
Dec-18 @ 16:00 UTC
(7 hours ago)
Dec-18 @ 18:00 UTC
(5 hours ago)
Dec-20 @ 00:00 UTC
(-1 days ago)
Dec-18 @ 18:00 to Dec-19 @ 00:00
TAF FQMA 181600Z 1818/1924 08012KT 9999 SCT020
Wind Visibility Clouds
80° at 12 knots 10,000+ meters
  • Scattered at 2,000' AGL
Becoming Dec-19 @ 00:00 to Dec-19 @ 12:00
BECMG 1900/1902 02008KT
Wind Visibility Clouds
20° at 8 knots 10,000+ meters
  • Scattered at 2,000' AGL
Becoming Dec-19 @ 12:00 to Dec-20 @ 00:00
BECMG 1912/1914 09012KT FEW025CB TX39/1913Z TN25/1903Z
Wind Visibility Clouds
90° at 12 knots 10,000+ meters
  • Few at 2,500' AGL
TAF FQMA 181600Z 1818/1924 08012KT 9999 SCT020 BECMG 1900/1902 02008KT BECMG 1912/1914 09012KT FEW025CB TX39/1913Z TN25/1903Z
Issued Dec-18 @ 16:00 UTC
(7 hours ago)
Valid From Dec-18 @ 18:00 UTC
(5 hours ago)
Valid To Dec-20 @ 00:00 UTC
(-1 days ago)
Dec-18 @ 18:00 - Dec-19 @ 00:00
Wind Visibility
80° at 12 knots 10,000+ meters
Clouds
  • Scattered at 2,000' AGL
Becoming Dec-19 @ 00:00 - Dec-19 @ 12:00
Wind Visibility
20° at 8 knots 10,000+ meters
Clouds
  • Scattered at 2,000' AGL
Becoming Dec-19 @ 12:00 - Dec-20 @ 00:00
Wind Visibility
90° at 12 knots 10,000+ meters
Clouds
  • Few at 2,500' AGL